Time;durP1;ratioP1;P1;durP2;ratioP2;P2;SDS_P1;SDS_P2;PMS_P1;PMS_P2;Temp;Humidity;BMP_temperature;BMP_pressure;BME280_temperature;BME280_humidity;BME280_pressure;Samples;Min_cycle;Max_cycle;Signal;HPM_P1;HPM_P2
2022/11/03 00:01:37;;;;;;;12.57;2.78;;;;;;;10.04;100.00;101343.75;5090147;28;20437;-57
2022/11/03 00:04:11;;;;;;;10.52;2.78;;;;;;;10.06;100.00;101342.72;5089975;28;20068;-56
2022/11/03 00:06:40;;;;;;;19.35;3.25;;;;;;;10.05;100.00;101340.16;5090594;28;20048;-56
2022/11/03 00:09:11;;;;;;;19.67;3.58;;;;;;;10.05;100.00;101345.41;5094175;28;20040;-56
2022/11/03 00:11:40;;;;;;;14.90;2.95;;;;;;;10.05;100.00;101333.13;5091926;28;20040;-56
2022/11/03 00:14:09;;;;;;;14.18;2.70;;;;;;;10.07;100.00;101333.88;5091501;28;20068;-55
2022/11/03 00:16:39;;;;;;;12.20;2.78;;;;;;;10.08;100.00;101330.34;5093193;28;20048;-56
2022/11/03 00:19:09;;;;;;;15.30;2.60;;;;;;;10.06;100.00;101331.34;5093863;28;20048;-57
2022/11/03 00:21:37;;;;;;;14.10;2.67;;;;;;;10.05;100.00;101327.88;5091605;28;20121;-56
2022/11/03 00:24:06;;;;;;;14.73;3.20;;;;;;;10.07;100.00;101327.78;5090124;28;20047;-55
2022/11/03 00:26:38;;;;;;;11.23;2.35;;;;;;;10.14;100.00;101323.88;5090335;28;20040;-55
2022/11/03 00:29:08;;;;;;;15.48;4.03;;;;;;;10.09;100.00;101323.28;5090706;28;20519;-56
2022/11/03 00:31:40;;;;;;;15.75;2.95;;;;;;;10.06;100.00;101320.84;5090250;28;20059;-56
2022/11/03 00:34:08;;;;;;;12.68;2.72;;;;;;;10.05;100.00;101316.50;5093174;28;20109;-57
2022/11/03 00:36:39;;;;;;;12.32;2.35;;;;;;;10.06;100.00;101310.31;5093280;28;20502;-56
2022/11/03 00:39:09;;;;;;;11.82;2.58;;;;;;;10.08;100.00;101311.09;5090907;28;20097;-57
2022/11/03 00:41:38;;;;;;;14.85;2.50;;;;;;;10.08;100.00;101306.69;5088838;28;20060;-56
2022/11/03 00:44:06;;;;;;;10.27;2.30;;;;;;;10.08;100.00;101287.44;5090339;28;20062;-56
2022/11/03 00:46:34;;;;;;;15.00;3.10;;;;;;;10.12;100.00;101283.72;5090346;28;20048;-57
2022/11/03 00:49:05;;;;;;;12.75;2.70;;;;;;;10.14;100.00;101290.59;5089789;28;20048;-56
2022/11/03 00:51:34;;;;;;;13.77;2.40;;;;;;;10.13;100.00;101282.78;5089434;28;20052;-57
2022/11/03 00:54:04;;;;;;;12.52;2.67;;;;;;;10.07;100.00;101275.22;5092177;28;20073;-56
2022/11/03 00:56:35;;;;;;;16.30;2.63;;;;;;;10.10;100.00;101268.03;5093328;28;20052;-56
2022/11/03 00:59:04;;;;;;;12.93;3.33;;;;;;;10.07;100.00;101269.97;5093189;28;20473;-57
2022/11/03 01:01:34;;;;;;;15.38;2.60;;;;;;;10.10;100.00;101262.78;5093162;28;20048;-56
2022/11/03 01:07:09;;;;;;;12.68;2.85;;;;;;;10.05;100.00;101254.31;5053669;28;20163;-56
2022/11/03 01:09:40;;;;;;;11.75;2.72;;;;;;;10.07;100.00;101243.69;5089365;28;20052;-57
2022/11/03 01:12:10;;;;;;;10.70;2.45;;;;;;;10.11;100.00;101245.22;5089712;28;20044;-56
2022/11/03 01:14:40;;;;;;;20.23;2.88;;;;;;;10.04;100.00;101243.88;5089595;28;20052;-56
2022/11/03 01:17:11;;;;;;;13.07;2.90;;;;;;;10.00;100.00;101245.00;5092038;28;20420;-57
2022/11/03 01:19:40;;;;;;;11.07;2.10;;;;;;;10.05;100.00;101245.56;5092571;28;20052;-57
2022/11/03 01:22:09;;;;;;;13.20;2.92;;;;;;;9.99;100.00;101233.63;5089424;28;20048;-57
2022/11/03 01:24:38;;;;;;;10.77;2.20;;;;;;;10.00;100.00;101224.81;5088951;28;20044;-57
2022/11/03 01:27:06;;;;;;;13.15;2.47;;;;;;;9.96;100.00;101229.38;5089498;28;20048;-57
2022/11/03 01:29:35;;;;;;;12.80;2.45;;;;;;;9.91;100.00;101220.94;5088537;28;20534;-57
2022/11/03 01:32:03;;;;;;;12.73;2.60;;;;;;;9.94;100.00;101218.13;5089190;28;20108;-56
2022/11/03 01:34:31;;;;;;;14.38;2.63;;;;;;;9.97;100.00;101228.44;5092221;28;20044;-56
2022/11/03 01:37:01;;;;;;;8.38;1.92;;;;;;;9.95;100.00;101224.22;5091046;28;20051;-57
2022/11/03 01:39:29;;;;;;;12.15;2.30;;;;;;;9.96;100.00;101210.16;5086906;28;20391;-56
2022/11/03 01:41:58;;;;;;;11.15;2.58;;;;;;;9.92;100.00;101213.88;5089051;28;20117;-56
2022/11/03 01:44:36;;;;;;;12.75;2.70;;;;;;;9.85;100.00;101202.03;5086840;28;20048;-56
2022/11/03 01:47:19;;;;;;;12.77;3.53;;;;;;;9.87;100.00;101195.75;5087428;28;20117;-55
2022/11/03 01:49:54;;;;;;;11.32;2.95;;;;;;;9.91;100.00;101192.03;5088745;28;20056;-57
2022/11/03 01:52:27;;;;;;;12.98;2.50;;;;;;;9.88;100.00;101197.44;5088698;28;20077;-55
2022/11/03 01:55:01;;;;;;;13.77;2.50;;;;;;;9.84;100.00;101195.06;5088313;28;20483;-56
2022/11/03 01:57:36;;;;;;;14.60;2.95;;;;;;;9.86;100.00;101186.19;5089153;28;20056;-56
2022/11/03 02:00:06;;;;;;;16.95;2.90;;;;;;;9.89;100.00;101187.78;5090418;28;20048;-56
2022/11/03 02:02:34;;;;;;;10.25;2.30;;;;;;;9.96;100.00;101182.06;5092241;28;20380;-55
2022/11/03 02:05:05;;;;;;;11.73;2.47;;;;;;;9.90;100.00;101178.97;5089378;28;20230;-56
2022/11/03 02:07:41;;;;;;;13.32;2.45;;;;;;;9.85;100.00;101173.97;5088482;28;20055;-55
2022/11/03 02:10:09;;;;;;;12.35;2.75;;;;;;;9.84;100.00;101177.53;5087648;28;20044;-56
2022/11/03 02:12:38;;;;;;;13.65;2.88;;;;;;;9.90;100.00;101177.19;5088877;28;20498;-56
2022/11/03 02:15:09;;;;;;;15.18;2.83;;;;;;;9.86;100.00;101178.31;5089295;28;20044;-56
2022/11/03 02:17:39;;;;;;;14.20;3.33;;;;;;;9.82;100.00;101163.66;5088362;28;20052;-51
2022/11/03 02:20:12;;;;;;;16.20;2.72;;;;;;;9.80;100.00;101161.09;5088323;28;20059;-51
2022/11/03 02:23:10;;;;;;;11.85;2.70;;;;;;;9.84;100.00;101164.38;5092116;28;20048;-51
2022/11/03 02:25:47;;;;;;;15.38;2.50;;;;;;;9.81;100.00;101162.78;5089695;28;20403;-48
2022/11/03 02:28:17;;;;;;;10.45;2.70;;;;;;;9.81;100.00;101162.78;5088634;28;20052;-49
2022/11/03 02:30:52;;;;;;;14.75;2.50;;;;;;;9.81;100.00;101157.53;5092308;28;20395;-51
2022/11/03 02:33:35;;;;;;;14.95;3.10;;;;;;;9.80;100.00;101149.75;5090200;28;20051;-48
2022/11/03 02:36:10;;;;;;;10.57;2.30;;;;;;;9.84;100.00;101135.50;5092885;28;20044;-51
2022/11/03 02:38:46;;;;;;;11.13;2.88;;;;;;;9.78;100.00;101122.72;5094916;28;20556;-51
2022/11/03 02:41:17;;;;;;;15.45;2.70;;;;;;;9.80;100.00;101121.72;5092120;28;20071;-48
2022/11/03 02:43:48;;;;;;;14.07;2.95;;;;;;;9.81;100.00;101117.28;5092761;28;20044;-52
2022/11/03 02:46:18;;;;;;;12.95;2.63;;;;;;;9.76;100.00;101116.69;5094574;28;20044;-51
2022/11/03 02:48:47;;;;;;;21.10;2.97;;;;;;;9.74;100.00;101103.66;5096129;28;20052;-50
2022/11/03 02:51:16;;;;;;;13.95;3.33;;;;;;;9.71;100.00;101105.63;5094009;28;20441;-52
2022/11/03 02:53:52;;;;;;;14.20;2.95;;;;;;;9.77;100.00;101105.28;5091646;28;20406;-50
2022/11/03 02:56:24;;;;;;;13.73;3.83;;;;;;;9.77;100.00;101100.00;5092119;28;20048;-49
2022/11/03 02:58:58;;;;;;;16.80;2.90;;;;;;;9.81;100.00;101085.78;5092834;28;20105;-52
2022/11/03 03:01:35;;;;;;;9.50;2.55;;;;;;;9.74;100.00;101084.44;5095507;28;20523;-52
2022/11/03 03:04:09;;;;;;;10.45;2.65;;;;;;;9.79;100.00;101087.66;5095102;28;20044;-53
2022/11/03 03:06:44;;;;;;;11.55;3.05;;;;;;;9.77;100.00;101082.47;5091926;28;20349;-50
2022/11/03 03:09:18;;;;;;;14.27;3.00;;;;;;;9.85;100.00;101083.81;5094367;28;20048;-49
2022/11/03 03:11:51;;;;;;;11.55;2.90;;;;;;;9.82;100.00;101088.31;5095034;28;20097;-52
2022/11/03 03:14:24;;;;;;;15.05;2.88;;;;;;;9.89;100.00;101080.09;5095730;28;20071;-50
2022/11/03 03:17:00;;;;;;;10.07;2.58;;;;;;;9.83;100.00;101086.53;5095441;28;20048;-51
2022/11/03 03:19:43;;;;;;;8.82;2.42;;;;;;;9.84;100.00;101085.59;5095083;28;20055;-52
2022/11/03 03:22:19;;;;;;;12.13;2.47;;;;;;;9.84;100.00;101085.59;5095430;28;20055;-51
2022/11/03 03:24:53;;;;;;;16.77;3.25;;;;;;;9.81;100.00;101078.72;5095274;28;20074;-49
2022/11/03 03:27:26;;;;;;;13.05;2.70;;;;;;;9.81;100.00;101065.59;5095123;28;20036;-52
2022/11/03 03:29:56;;;;;;;;;;;;;;;9.85;100.00;101070.69;5093957;28;20410;-53
2022/11/03 03:32:27;;;;;;;11.82;2.40;;;;;;;9.88;100.00;101073.13;5089824;28;19923;-52
2022/11/03 03:34:56;;;;;;;13.98;2.40;;;;;;;9.84;100.00;101068.97;5091479;28;20044;-51
2022/11/03 03:37:27;;;;;;;11.90;2.90;;;;;;;9.79;100.00;101064.84;5091044;28;20055;-50
2022/11/03 03:39:59;;;;;;;8.70;2.13;;;;;;;9.86;100.00;101065.34;5094774;28;20506;-51
2022/11/03 03:42:31;;;;;;;16.60;2.58;;;;;;;9.83;100.00;101060.28;5094760;28;20048;-51
2022/11/03 03:45:00;;;;;;;8.50;2.03;;;;;;;9.84;100.00;101059.31;5094739;28;20387;-53
2022/11/03 03:47:31;;;;;;;14.18;2.85;;;;;;;9.79;100.00;101056.97;5094897;28;20529;-52
2022/11/03 03:50:00;;;;;;;13.43;2.40;;;;;;;9.81;100.00;101046.38;5094502;28;20055;-53
2022/11/03 03:52:29;;;;;;;12.00;2.30;;;;;;;9.75;100.00;101042.31;5094492;28;20105;-52
2022/11/03 03:54:58;;;;;;;11.95;2.35;;;;;;;9.81;100.00;101044.56;5092369;28;20052;-51
2022/11/03 03:57:27;;;;;;;15.15;2.85;;;;;;;9.81;100.00;101033.22;5090319;28;20048;-52
2022/11/03 03:59:57;;;;;;;13.25;2.22;;;;;;;9.81;100.00;101027.97;5089807;28;20064;-51
2022/11/03 04:02:25;;;;;;;17.90;2.60;;;;;;;9.71;100.00;101029.47;5091190;28;20044;-50
2022/11/03 04:04:57;;;;;;;12.48;2.53;;;;;;;9.80;100.00;101021.03;5094147;28;20486;-51
2022/11/03 04:10:11;;;;;;;9.60;2.58;;;;;;;9.81;100.00;101020.09;5094047;28;20048;-54
2022/11/03 04:24:00;;;;;;;13.18;2.10;;;;;;;9.83;100.00;100994.59;5089480;28;20040;-51
2022/11/03 04:26:28;;;;;;;10.75;2.28;;;;;;;9.95;100.00;100993.88;5090898;28;20139;-49
2022/11/03 04:28:57;;;;;;;11.35;2.47;;;;;;;9.90;100.00;100992.47;5093713;28;20054;-53
2022/11/03 04:31:34;;;;;;;10.43;2.33;;;;;;;9.91;100.00;101002.00;5093608;28;20040;-53
2022/11/03 04:34:04;;;;;;;11.60;2.38;;;;;;;9.89;100.00;100988.13;5093644;28;20097;-52
2022/11/03 04:36:33;;;;;;;11.73;2.50;;;;;;;9.88;100.00;100987.25;5093363;28;20122;-50
2022/11/03 04:39:01;;;;;;;12.60;2.33;;;;;;;9.93;100.00;100979.97;5093094;28;20051;-51
2022/11/03 04:41:32;;;;;;;16.50;3.85;;;;;;;9.88;100.00;100976.75;5093503;28;20532;-50
2022/11/03 04:44:01;;;;;;;16.90;2.67;;;;;;;9.94;100.00;100984.28;5093760;28;20390;-51
2022/11/03 04:46:31;;;;;;;12.05;2.05;;;;;;;9.94;100.00;100984.28;5093488;28;20078;-50
2022/11/03 04:49:01;;;;;;;10.07;2.50;;;;;;;9.95;100.00;100980.72;5093614;28;20040;-51
2022/11/03 04:51:33;;;;;;;10.15;2.50;;;;;;;9.92;100.00;100983.50;5093457;28;20113;-52
2022/11/03 04:54:03;;;;;;;10.50;2.25;;;;;;;9.94;100.00;100992.16;5093320;28;20040;-57
2022/11/03 04:56:32;;;;;;;12.80;2.20;;;;;;;10.03;100.00;100989.91;5088860;28;20028;-55
2022/11/03 04:59:00;;;;;;;8.35;2.08;;;;;;;10.00;100.00;100979.59;5089065;28;20395;-54
2022/11/03 05:01:30;;;;;;;13.60;3.00;;;;;;;9.98;100.00;100975.28;5091069;28;20056;-57
2022/11/03 05:03:58;;;;;;;13.15;2.42;;;;;;;10.00;100.00;100972.56;5093144;28;20047;-56
2022/11/03 05:06:30;;;;;;;13.25;2.40;;;;;;;9.99;100.00;100970.84;5093118;28;20036;-56
2022/11/03 05:09:02;;;;;;;11.52;2.63;;;;;;;9.96;100.00;100969.25;5089554;28;20097;-55
2022/11/03 05:11:32;;;;;;;10.05;2.38;;;;;;;9.95;100.00;100959.72;5090427;28;20558;-54
2022/11/03 05:14:02;;;;;;;10.90;2.28;;;;;;;9.94;100.00;100955.38;5092985;28;20052;-55
2022/11/03 05:16:33;;;;;;;10.52;2.15;;;;;;;9.97;100.00;100952.56;5090925;28;20044;-56
2022/11/03 05:19:02;;;;;;;15.35;2.95;;;;;;;9.95;100.00;100946.56;5089235;28;20048;-55
2022/11/03 05:21:30;;;;;;;9.77;2.22;;;;;;;9.95;100.00;100951.81;5088482;28;20387;-56
2022/11/03 05:24:03;;;;;;;11.75;2.50;;;;;;;10.03;100.00;100950.50;5088388;28;20048;-55
2022/11/03 05:26:34;;;;;;;13.35;2.50;;;;;;;9.99;100.00;100947.22;5090537;28;20044;-56
2022/11/03 05:29:04;;;;;;;10.38;2.42;;;;;;;9.98;100.00;100938.50;5089132;28;20423;-55
2022/11/03 05:31:37;;;;;;;13.55;2.55;;;;;;;9.98;100.00;100946.38;5088272;28;20048;-55
2022/11/03 05:34:32;;;;;;;10.50;2.63;;;;;;;10.00;100.00;100932.31;5088590;28;20364;-56
2022/11/03 05:37:06;;;;;;;13.02;2.40;;;;;;;10.06;100.00;100940.66;5089079;28;20086;-56
2022/11/03 05:39:36;;;;;;;9.07;2.22;;;;;;;10.02;100.00;100935.69;5088041;28;20063;-56
2022/11/03 05:42:20;;;;;;;12.60;2.60;;;;;;;10.03;100.00;100926.88;5088799;28;20560;-56
2022/11/03 05:44:49;;;;;;;11.60;2.92;;;;;;;10.06;100.00;100910.91;5090481;28;20473;-56
2022/11/03 05:47:22;;;;;;;10.98;2.70;;;;;;;10.07;100.00;100912.59;5089962;28;20052;-58
2022/11/03 05:49:54;;;;;;;14.75;2.88;;;;;;;10.05;100.00;100903.94;5088925;28;20068;-56
2022/11/03 05:52:25;;;;;;;11.35;2.30;;;;;;;10.13;100.00;100904.34;5091156;28;20441;-56
2022/11/03 05:54:56;;;;;;;13.50;2.45;;;;;;;10.12;100.00;100902.66;5087461;28;20519;-56
2022/11/03 05:57:29;;;;;;;13.35;2.65;;;;;;;10.09;100.00;100906.31;5088295;28;20506;-56
2022/11/03 05:59:58;;;;;;;10.93;2.45;;;;;;;10.10;100.00;100899.25;5091189;28;20109;-55
2022/11/03 06:02:37;;;;;;;15.90;2.70;;;;;;;10.19;100.00;100900.47;5092265;28;20040;-54
2022/11/03 06:05:15;;;;;;;14.90;2.92;;;;;;;10.19;100.00;100885.53;5088773;28;20554;-55
2022/11/03 06:07:43;;;;;;;11.35;2.50;;;;;;;10.13;100.00;100893.84;5089224;28;20372;-55
2022/11/03 06:10:24;;;;;;;10.23;2.47;;;;;;;10.17;100.00;100886.56;5090329;28;20048;-54
2022/11/03 06:12:56;;;;;;;10.32;2.63;;;;;;;10.17;100.00;100887.44;5095331;28;20551;-56
2022/11/03 06:15:33;;;;;;;13.70;2.28;;;;;;;10.16;100.00;100880.50;5095876;28;20483;-52
2022/11/03 06:18:13;;;;;;;11.82;2.30;;;;;;;10.19;100.00;100875.03;5093307;28;20072;-52
2022/11/03 06:20:44;;;;;;;11.10;2.58;;;;;;;10.24;100.00;100878.22;5094550;28;20102;-56
2022/11/03 06:23:15;;;;;;;11.77;2.80;;;;;;;10.26;100.00;100881.59;5096222;28;20039;-56
2022/11/03 06:25:47;;;;;;;13.52;2.40;;;;;;;10.24;100.00;100877.34;5096291;28;20051;-56
2022/11/03 06:28:19;;;;;;;11.50;2.72;;;;;;;10.27;100.00;100874.56;5095464;28;20147;-57
2022/11/03 06:30:49;;;;;;;11.15;3.10;;;;;;;10.27;100.00;100874.56;5093402;28;20125;-56
2022/11/03 06:33:25;;;;;;;10.65;2.45;;;;;;;10.25;100.00;100861.53;5090108;28;20044;-56
2022/11/03 06:35:58;;;;;;;12.32;2.67;;;;;;;10.28;100.00;100863.94;5092607;28;20040;-56
2022/11/03 06:38:30;;;;;;;15.27;2.75;;;;;;;10.32;100.00;100861.94;5091466;28;20449;-57
2022/11/03 06:40:59;;;;;;;14.27;2.17;;;;;;;10.35;100.00;100855.69;5092534;28;20105;-57
2022/11/03 06:43:34;;;;;;;12.00;2.33;;;;;;;10.35;100.00;100859.16;5095854;28;20048;-56
2022/11/03 06:46:12;;;;;;;14.00;2.92;;;;;;;10.36;100.00;100854.75;5094358;28;20051;-56
2022/11/03 06:48:42;;;;;;;9.23;2.40;;;;;;;10.42;100.00;100852.56;5091586;28;20150;-56
2022/11/03 06:51:18;;;;;;;8.45;2.35;;;;;;;10.41;100.00;100848.25;5092088;28;20093;-56
2022/11/03 06:53:47;;;;;;;13.32;2.30;;;;;;;10.42;100.00;100844.69;5091351;28;20131;-56
2022/11/03 06:56:20;;;;;;;9.98;2.17;;;;;;;10.44;100.00;100849.84;5092399;28;20044;-56
2022/11/03 06:58:49;;;;;;;9.45;2.55;;;;;;;10.43;100.00;100840.25;5095433;28;20109;-56
2022/11/03 07:01:21;;;;;;;9.50;1.90;;;;;;;10.42;100.00;100839.44;5094356;28;20079;-57
2022/11/03 07:03:56;;;;;;;11.85;2.30;;;;;;;10.45;100.00;100843.66;5094180;28;20379;-55
2022/11/03 07:06:29;;;;;;;11.02;2.88;;;;;;;10.55;100.00;100841.25;5091378;28;20052;-56
2022/11/03 07:08:59;;;;;;;12.48;3.22;;;;;;;10.48;100.00;100838.19;5093240;28;20052;-56
2022/11/03 07:11:30;;;;;;;11.45;2.70;;;;;;;10.49;100.00;100840.72;5090883;28;20070;-54
2022/11/03 07:14:02;;;;;;;12.50;2.50;;;;;;;10.54;100.00;100836.94;5090785;28;20102;-54
2022/11/03 07:16:35;;;;;;;11.48;2.70;;;;;;;10.47;100.00;100832.09;5092675;28;20517;-57
2022/11/03 07:19:10;;;;;;;16.42;2.63;;;;;;;10.48;100.00;100832.91;5094960;28;20180;-56
2022/11/03 07:21:42;;;;;;;10.00;2.60;;;;;;;10.47;100.00;100833.84;5094256;28;20510;-56
2022/11/03 07:24:18;;;;;;;14.17;2.97;;;;;;;10.57;100.00;100826.25;5094675;28;20040;-56
2022/11/03 07:26:47;;;;;;;9.70;2.25;;;;;;;10.57;100.00;100831.50;5094682;28;20052;-56
2022/11/03 07:29:20;;;;;;;10.25;2.45;;;;;;;10.52;100.00;100837.03;5094799;28;20737;-56
2022/11/03 07:31:52;;;;;;;11.77;2.40;;;;;;;10.56;100.00;100829.81;5092467;28;20109;-56
2022/11/03 07:34:24;;;;;;;11.95;2.97;;;;;;;10.61;100.00;100836.44;5090834;28;20494;-56
2022/11/03 07:36:54;;;;;;;11.57;2.88;;;;;;;10.59;100.00;100832.22;5091964;28;20056;-56
2022/11/03 07:39:23;;;;;;;10.15;3.28;;;;;;;10.65;100.00;100822.16;5090543;28;20127;-56
2022/11/03 07:41:54;;;;;;;12.07;2.63;;;;;;;10.68;100.00;100823.75;5093099;28;20114;-56
2022/11/03 07:44:22;;;;;;;14.85;2.85;;;;;;;10.69;100.00;100827.19;5092004;28;20048;-52
2022/11/03 07:46:50;;;;;;;10.75;2.88;;;;;;;10.80;100.00;100822.94;5091557;28;20075;-52
2022/11/03 07:49:27;;;;;;;11.07;2.70;;;;;;;10.87;100.00;100819.91;5091072;28;20043;-52
2022/11/03 07:51:57;;;;;;;11.50;2.55;;;;;;;10.89;100.00;100820.63;5094139;28;20063;-52
2022/11/03 07:54:30;;;;;;;9.48;2.45;;;;;;;10.87;100.00;100809.38;5091802;28;20051;-50
2022/11/03 07:56:58;;;;;;;;;;;;;;;10.87;100.00;100807.56;5091834;28;20063;-50
2022/11/03 07:59:30;;;;;;;9.32;2.53;;;;;;;10.98;100.00;100807.69;5091015;28;20462;-52
2022/11/03 08:02:00;;;;;;;;;;;;;;;10.95;100.00;100805.28;5094179;28;20127;-56
2022/11/03 08:04:33;;;;;;;14.70;2.60;;;;;;;10.96;100.00;100804.34;5089835;28;20291;-56
2022/11/03 08:07:01;;;;;;;12.65;2.78;;;;;;;10.98;100.00;100794.53;5090918;28;20479;-56
2022/11/03 08:09:29;;;;;;;12.27;2.80;;;;;;;10.97;100.00;100786.75;5088364;28;20036;-56
2022/11/03 08:11:57;;;;;;;11.05;2.35;;;;;;;11.11;100.00;100791.06;5093672;28;20415;-57
2022/11/03 08:14:26;;;;;;;12.20;2.90;;;;;;;11.09;100.00;100783.28;5090504;28;20878;-57
2022/11/03 08:16:54;;;;;;;12.13;3.13;;;;;;;11.14;100.00;100796.13;5090776;28;20050;-57
2022/11/03 08:19:22;;;;;;;12.35;2.42;;;;;;;11.11;100.00;100793.69;5091523;28;20043;-57
2022/11/03 08:21:51;;;;;;;13.27;2.78;;;;;;;11.14;100.00;100781.19;5093877;28;20062;-57
2022/11/03 08:24:19;;;;;;;12.23;2.30;;;;;;;11.23;100.00;100781.50;5090565;28;20044;-57
2022/11/03 08:26:47;;;;;;;10.52;2.65;;;;;;;11.23;100.00;100786.75;5090682;28;20052;-57
2022/11/03 08:29:18;;;;;;;14.90;3.30;;;;;;;11.26;100.00;100779.50;5094029;28;20051;-55
2022/11/03 08:31:47;;;;;;;9.50;3.25;;;;;;;11.25;100.00;100783.06;5093006;28;20568;-57
2022/11/03 08:34:15;;;;;;;13.52;2.80;;;;;;;11.35;100.00;100774.53;5093759;28;20094;-56
2022/11/03 08:36:43;;;;;;;12.15;2.92;;;;;;;11.38;100.00;100769.88;5090911;28;20086;-56
2022/11/03 08:39:13;;;;;;;12.40;3.00;;;;;;;11.42;100.00;100774.00;5088194;28;20054;-55
2022/11/03 08:41:41;;;;;;;11.80;2.60;;;;;;;11.41;100.00;100768.84;5090056;28;20101;-52
2022/11/03 08:44:09;;;;;;;8.90;2.70;;;;;;;11.42;100.00;100766.09;5090063;28;20047;-49
2022/11/03 08:46:37;;;;;;;11.27;2.70;;;;;;;11.51;100.00;100754.09;5091863;28;20047;-53
2022/11/03 08:49:05;;;;;;;11.45;3.03;;;;;;;11.50;100.00;100747.13;5092652;28;20072;-51
2022/11/03 08:51:33;;;;;;;13.60;2.88;;;;;;;11.57;100.00;100737.00;5092912;28;20047;-52
2022/11/03 08:54:04;;;;;;;10.52;2.70;;;;;;;11.60;100.00;100731.50;5092892;28;20055;-50
2022/11/03 08:56:34;;;;;;;10.02;2.58;;;;;;;11.72;100.00;100732.44;5092793;28;20050;-56
2022/11/03 08:59:02;;;;;;;9.20;2.67;;;;;;;11.72;100.00;100719.25;5091169;28;20508;-57
2022/11/03 09:01:30;;;;;;;14.05;2.42;;;;;;;11.71;100.00;100717.56;5089254;28;20051;-55
2022/11/03 09:03:58;;;;;;;11.38;2.95;;;;;;;11.77;100.00;100712.72;5088608;28;20050;-57
2022/11/03 09:06:27;;;;;;;12.52;3.13;;;;;;;11.82;100.00;100704.47;5088925;28;20052;-57
2022/11/03 09:08:55;;;;;;;11.25;2.63;;;;;;;11.81;100.00;100703.63;5088802;28;20411;-57
2022/11/03 09:11:45;;;;;;;8.32;2.30;;;;;;;11.84;100.00;100686.75;5091193;28;20040;-57
2022/11/03 09:14:14;;;;;;;10.00;2.45;;;;;;;11.90;100.00;100688.09;5090232;28;20428;-57
2022/11/03 09:16:42;;;;;;;9.10;2.80;;;;;;;11.95;100.00;100684.19;5088698;28;20468;-56
2022/11/03 09:19:11;;;;;;;8.38;2.50;;;;;;;12.06;100.00;100680.78;5088129;28;20532;-57
2022/11/03 09:21:39;;;;;;;12.77;2.83;;;;;;;12.14;100.00;100675.78;5087766;28;20052;-57
2022/11/03 09:24:07;;;;;;;10.80;2.83;;;;;;;12.16;100.00;100659.84;5087870;28;20072;-57
2022/11/03 09:26:37;;;;;;;10.65;2.80;;;;;;;12.17;100.00;100656.25;5089034;28;20098;-56
2022/11/03 09:29:06;;;;;;;14.70;3.05;;;;;;;12.16;100.00;100651.94;5089236;28;20040;-56
2022/11/03 09:31:34;;;;;;;11.65;2.60;;;;;;;12.18;100.00;100637.69;5088386;28;20494;-56
2022/11/03 09:34:02;;;;;;;11.23;2.95;;;;;;;12.31;100.00;100632.34;5088537;28;20206;-56
2022/11/03 09:36:31;;;;;;;11.48;2.85;;;;;;;12.39;100.00;100638.81;5088466;28;20048;-56
2022/11/03 09:38:59;;;;;;;9.57;2.40;;;;;;;12.45;100.00;100627.81;5087634;28;20778;-56
2022/11/03 09:41:27;;;;;;;11.20;2.22;;;;;;;12.55;100.00;100627.94;5087340;28;20108;-56
2022/11/03 09:44:17;;;;;;;13.27;2.75;;;;;;;12.62;100.00;100618.59;5088460;28;20129;-56
2022/11/03 09:46:46;;;;;;;10.93;2.63;;;;;;;12.76;100.00;100610.47;5088420;28;20456;-56
2022/11/03 09:49:16;;;;;;;9.43;2.40;;;;;;;12.89;100.00;100602.41;5088421;28;20364;-56
2022/11/03 09:51:45;;;;;;;11.48;2.33;;;;;;;12.95;100.00;100586.09;5088876;28;20085;-57
2022/11/03 09:54:16;;;;;;;12.63;2.50;;;;;;;12.96;100.00;100586.91;5087647;28;20047;-56
2022/11/03 09:56:46;;;;;;;10.15;2.50;;;;;;;12.91;100.00;100578.53;5091003;28;20044;-57
2022/11/03 09:59:18;;;;;;;10.80;2.55;;;;;;;12.96;100.00;100579.00;5089257;28;20101;-57
2022/11/03 10:01:48;;;;;;;7.20;2.13;;;;;;;12.96;100.00;100558.72;5088813;28;20097;-57
2022/11/03 10:04:20;;;;;;;9.38;2.05;;;;;;;13.08;100.00;100561.34;5088028;28;20063;-57
2022/11/03 10:06:49;;;;;;;9.63;2.38;;;;;;;13.09;100.00;100557.72;5088509;28;20044;-57
2022/11/03 10:09:19;;;;;;;13.48;2.45;;;;;;;13.13;100.00;100559.16;5088957;28;20070;-57
2022/11/03 10:11:47;;;;;;;8.88;2.60;;;;;;;13.08;100.00;100540.25;5092250;28;20395;-57
2022/11/03 10:14:18;;;;;;;12.27;2.58;;;;;;;13.22;100.00;100547.03;5092613;28;20036;-57
2022/11/03 10:16:53;;;;;;;9.20;2.33;;;;;;;13.17;100.00;100545.59;5089123;28;20525;-57
2022/11/03 10:19:21;;;;;;;11.65;2.45;;;;;;;13.16;100.00;100538.63;5088734;28;20047;-57
2022/11/03 10:21:49;;;;;;;13.70;2.65;;;;;;;13.24;100.00;100532.75;5092312;28;20084;-57
2022/11/03 10:24:18;;;;;;;11.43;2.42;;;;;;;13.23;100.00;100539.00;5092212;28;20435;-57
2022/11/03 10:26:47;;;;;;;12.77;2.50;;;;;;;13.22;100.00;100529.38;5092201;28;20431;-57
2022/11/03 10:29:22;;;;;;;8.90;2.10;;;;;;;13.30;100.00;100515.56;5089044;28;20048;-57
2022/11/03 10:31:53;;;;;;;11.20;2.55;;;;;;;13.33;100.00;100518.81;5088310;28;20131;-57
2022/11/03 10:34:27;;;;;;;8.77;2.63;;;;;;;13.41;100.00;100498.88;5087757;28;20063;-57
2022/11/03 10:37:11;;;;;;;11.02;2.35;;;;;;;13.34;100.00;100512.53;5090189;28;20105;-57
2022/11/03 10:39:40;;;;;;;9.63;2.03;;;;;;;13.32;100.00;100498.63;5091778;28;20482;-57
2022/11/03 10:42:18;;;;;;;10.30;2.17;;;;;;;13.36;100.00;100491.31;5091961;28;20506;-57
2022/11/03 10:44:48;;;;;;;12.35;2.47;;;;;;;13.39;100.00;100480.50;5092100;28;20056;-56
2022/11/03 10:47:32;;;;;;;9.40;2.40;;;;;;;13.35;100.00;100474.63;5089519;28;20052;-57
2022/11/03 10:50:12;;;;;;;7.25;2.40;;;;;;;13.38;100.00;100468.25;5086814;28;20052;-57
2022/11/03 10:52:40;;;;;;;9.55;2.95;;;;;;;13.31;100.00;100462.63;5087539;28;20044;-58
2022/11/03 10:55:10;;;;;;;11.38;2.55;;;;;;;13.40;100.00;100449.63;5087966;28;20169;-56
2022/11/03 10:57:40;;;;;;;8.73;2.17;;;;;;;13.34;100.00;100457.06;5091463;28;20044;-58
2022/11/03 11:00:13;;;;;;;8.80;2.22;;;;;;;13.42;100.00;100450.38;5091803;28;20044;-57
2022/11/03 11:02:43;;;;;;;8.73;2.10;;;;;;;13.46;100.00;100438.56;5095132;28;20079;-58
2022/11/03 11:05:15;;;;;;;11.15;2.45;;;;;;;13.42;100.00;100429.22;5091295;28;20047;-57
2022/11/03 11:07:44;;;;;;;9.15;2.38;;;;;;;13.44;100.00;100422.00;5093267;28;20495;-57
2022/11/03 11:10:16;;;;;;;9.30;2.35;;;;;;;13.38;100.00;100410.16;5093381;28;20105;-57
2022/11/03 11:13:05;;;;;;;12.93;2.60;;;;;;;13.35;100.00;100400.69;5091610;28;20048;-57
2022/11/03 11:15:40;;;;;;;10.30;2.30;;;;;;;13.35;100.00;100403.31;5091276;28;20075;-57
2022/11/03 11:18:09;;;;;;;8.45;2.58;;;;;;;13.39;100.00;100400.41;5091587;28;20071;-57
2022/11/03 11:20:40;;;;;;;8.63;2.40;;;;;;;13.43;100.00;100394.75;5090680;28;20470;-57
2022/11/03 11:23:44;;;;;;;9.82;2.28;;;;;;;13.48;100.00;100397.00;5093173;28;20552;-57
2022/11/03 11:26:31;;;;;;;8.30;2.30;;;;;;;13.59;100.00;100402.22;5091445;28;20552;-58
2022/11/03 11:29:33;;;;;;;11.23;2.58;;;;;;;13.72;100.00;100394.09;5091812;28;20048;-57
2022/11/03 11:32:46;;;;;;;8.70;2.20;;;;;;;13.75;100.00;100390.34;5089138;28;20453;-56
2022/11/03 11:35:16;;;;;;;;;;;;;;;13.76;100.00;100378.81;5092966;28;20055;-58
2022/11/03 11:37:45;;;;;;;11.75;2.28;;;;;;;13.75;100.00;100375.31;5091935;28;19924;-57
2022/11/03 11:40:14;;;;;;;9.35;2.30;;;;;;;13.79;100.00;100376.72;5090179;28;20052;-58
2022/11/03 11:43:19;;;;;;;7.15;2.00;;;;;;;13.94;100.00;100373.75;5091330;28;20052;-58
2022/11/03 11:46:33;;;;;;;8.82;2.17;;;;;;;13.91;100.00;100381.94;5091359;28;20097;-57
2022/11/03 11:49:18;;;;;;;;;;;;;;;13.98;100.00;100370.69;5091396;28;20595;-56
2022/11/03 11:51:46;;;;;;;7.85;2.38;;;;;;;14.06;100.00;100369.16;5091018;28;19931;-57
2022/11/03 11:54:19;;;;;;;9.52;2.10;;;;;;;14.11;100.00;100359.88;5090034;28;20046;-57